createdAt,value
2019-01-23T00:00:10.425Z,31.95
2019-01-23T00:02:39.208Z,31.85
2019-01-23T00:05:08.216Z,32.50
2019-01-23T00:07:37.230Z,32.38
2019-01-23T00:10:06.659Z,31.52
2019-01-23T00:12:35.575Z,35.60
2019-01-23T00:15:04.944Z,34.05
2019-01-23T00:17:33.948Z,35.40
2019-01-23T00:20:02.809Z,33.83
2019-01-23T00:22:32.072Z,30.75
2019-01-23T00:25:00.908Z,32.58
2019-01-23T00:27:29.976Z,30.17
2019-01-23T00:29:58.803Z,31.17
2019-01-23T00:32:27.961Z,30.68
2019-01-23T00:34:56.858Z,31.07
2019-01-23T00:37:25.623Z,30.52
2019-01-23T00:39:54.461Z,30.77
2019-01-23T00:42:23.353Z,30.97
2019-01-23T00:44:52.508Z,30.60
2019-01-23T00:47:21.443Z,33.15
2019-01-23T00:49:50.420Z,31.45
2019-01-23T00:52:19.328Z,32.17
2019-01-23T00:54:48.335Z,32.05
2019-01-23T00:57:17.332Z,31.75
2019-01-23T00:59:46.288Z,33.08
2019-01-23T01:02:15.267Z,31.85
2019-01-23T01:04:44.235Z,31.25
2019-01-23T01:07:13.220Z,31.82
2019-01-23T01:09:42.192Z,30.25
2019-01-23T01:12:11.538Z,30.32
2019-01-23T01:14:40.820Z,30.95
2019-01-23T01:17:09.820Z,31.87
2019-01-23T01:19:38.829Z,31.15
2019-01-23T01:22:07.815Z,30.45
2019-01-23T01:24:36.807Z,31.85
2019-01-23T01:27:05.798Z,31.70
2019-01-23T01:29:34.688Z,31.05
2019-01-23T01:32:03.672Z,29.42
2019-01-23T01:34:32.884Z,31.75
2019-01-23T01:37:02.193Z,31.90
2019-01-23T01:39:31.185Z,29.92
2019-01-23T01:42:00.161Z,31.50
2019-01-23T01:44:29.244Z,32.40
2019-01-23T01:46:58.362Z,32.53
2019-01-23T01:49:27.295Z,30.25
2019-01-23T01:51:56.105Z,31.07
2019-01-23T01:54:24.932Z,30.30
2019-01-23T01:56:53.828Z,31.95
2019-01-23T01:59:22.736Z,29.30
2019-01-23T02:01:51.764Z,32.60
2019-01-23T02:04:20.700Z,30.08
2019-01-23T02:06:49.714Z,31.30
2019-01-23T02:09:18.544Z,29.87
2019-01-23T02:11:47.840Z,29.27
2019-01-23T02:14:16.678Z,24.45
2019-01-23T02:16:45.772Z,29.40
2019-01-23T02:19:15.074Z,28.32
2019-01-23T02:21:44.103Z,29.92
2019-01-23T02:24:13.040Z,28.85
2019-01-23T02:26:41.953Z,30.27
2019-01-23T02:29:10.848Z,30.25
2019-01-23T02:31:40.016Z,29.37
2019-01-23T02:34:09.013Z,29.42
2019-01-23T02:36:37.900Z,30.72
2019-01-23T02:39:08.437Z,30.95
2019-01-23T02:41:37.320Z,30.35
2019-01-23T02:44:06.302Z,31.68
2019-01-23T02:46:35.156Z,30.80
2019-01-23T02:49:04.192Z,30.95
2019-01-23T02:51:33.109Z,27.52
2019-01-23T02:54:01.995Z,31.10
2019-01-23T02:56:30.856Z,30.27
2019-01-23T02:58:59.736Z,31.73
2019-01-23T03:01:28.660Z,31.17
2019-01-23T03:03:57.684Z,31.85
2019-01-23T03:06:26.597Z,33.02
2019-01-23T03:08:55.380Z,30.92
2019-01-23T03:11:24.269Z,31.40
2019-01-23T03:13:53.300Z,32.98
2019-01-23T03:16:22.233Z,33.50
2019-01-23T03:18:51.182Z,31.02
2019-01-23T03:21:20.071Z,33.75
2019-01-23T03:23:48.975Z,31.65
2019-01-23T03:26:18.005Z,33.35
2019-01-23T03:28:46.896Z,33.88
2019-01-23T03:31:15.797Z,33.98
2019-01-23T03:33:44.676Z,34.05
2019-01-23T03:36:13.740Z,34.33
2019-01-23T03:38:42.520Z,32.88
2019-01-23T03:41:11.620Z,33.60
2019-01-23T03:43:40.580Z,31.23
2019-01-23T03:46:09.569Z,33.10
2019-01-23T03:48:38.452Z,32.93
2019-01-23T03:51:07.269Z,33.95
2019-01-23T03:53:36.255Z,33.78
2019-01-23T03:56:05.942Z,34.78
2019-01-23T03:58:35.036Z,34.50
2019-01-23T04:01:04.124Z,32.95
2019-01-23T04:03:33.186Z,31.93
2019-01-23T04:06:02.110Z,33.42
2019-01-23T04:08:30.953Z,34.27
2019-01-23T04:11:00.213Z,32.45
2019-01-23T04:13:29.076Z,34.25
2019-01-23T04:15:57.964Z,33.33
2019-01-23T04:18:26.804Z,31.70
2019-01-23T04:20:55.852Z,33.92
2019-01-23T04:23:24.678Z,31.12
2019-01-23T04:25:53.465Z,34.08
2019-01-23T04:28:22.568Z,33.73
2019-01-23T04:30:51.400Z,34.60
2019-01-23T04:33:20.296Z,34.23
2019-01-23T04:35:49.295Z,33.45
2019-01-23T04:38:18.176Z,33.33
2019-01-23T04:40:47.374Z,32.17
2019-01-23T04:43:16.490Z,30.62
2019-01-23T04:45:45.504Z,32.13
2019-01-23T04:48:14.432Z,33.13
2019-01-23T04:51:01.452Z,31.97
2019-01-23T04:53:34.574Z,32.88
2019-01-23T04:56:03.496Z,32.33
2019-01-23T04:58:32.468Z,35.63
2019-01-23T05:01:01.524Z,31.52
2019-01-23T05:03:30.456Z,34.98
2019-01-23T05:05:59.341Z,32.50
2019-01-23T05:08:28.241Z,31.97
2019-01-23T05:10:57.160Z,33.05
2019-01-23T05:13:26.448Z,33.95
2019-01-23T05:15:55.429Z,33.20
2019-01-23T05:18:24.556Z,36.63
2019-01-23T05:20:53.515Z,35.85
2019-01-23T05:23:22.517Z,34.80
2019-01-23T05:25:51.420Z,35.05
2019-01-23T05:28:20.274Z,31.85
2019-01-23T05:30:49.210Z,35.40
2019-01-23T05:33:18.004Z,32.20
2019-01-23T05:35:46.945Z,32.58
2019-01-23T05:38:15.814Z,32.13
2019-01-23T05:40:44.722Z,34.15
2019-01-23T05:43:13.648Z,33.08
2019-01-23T05:45:42.461Z,34.73
2019-01-23T05:48:11.316Z,34.90
2019-01-23T05:50:40.272Z,33.60
2019-01-23T05:53:09.161Z,35.23
2019-01-23T05:55:38.189Z,33.28
2019-01-23T05:58:07.070Z,34.10
2019-01-23T06:00:35.984Z,34.55
2019-01-23T06:03:04.972Z,35.30
2019-01-23T06:05:33.861Z,37.25
2019-01-23T06:08:02.671Z,37.98
2019-01-23T06:10:31.652Z,36.77
2019-01-23T06:13:00.596Z,36.68
2019-01-23T06:15:29.792Z,37.50
2019-01-23T06:17:58.975Z,36.88
2019-01-23T06:20:27.999Z,36.63
2019-01-23T06:22:57.352Z,36.35
2019-01-23T06:25:26.309Z,39.27
2019-01-23T06:27:55.576Z,45.58
2019-01-23T06:30:26.920Z,52.62
2019-01-23T06:32:56.064Z,52.40
2019-01-23T06:35:24.993Z,53.25
2019-01-23T06:37:54.076Z,45.85
2019-01-23T06:40:23.100Z,44.83
2019-01-23T06:42:52.184Z,45.40
2019-01-23T06:45:21.271Z,39.78
2019-01-23T06:47:50.508Z,39.18
2019-01-23T06:50:21.324Z,39.90
2019-01-23T06:52:50.636Z,36.17
2019-01-23T06:55:20.231Z,36.20
2019-01-23T06:57:49.215Z,38.95
2019-01-23T07:00:20.697Z,36.50
2019-01-23T07:02:50.064Z,36.20
2019-01-23T07:05:19.138Z,33.18
2019-01-23T07:07:48.109Z,34.63
2019-01-23T07:10:25.272Z,35.00
2019-01-23T07:12:54.585Z,34.48
2019-01-23T07:15:23.652Z,36.83
2019-01-23T07:17:52.556Z,34.45
2019-01-23T07:20:23.678Z,36.13
2019-01-23T07:22:52.546Z,32.23
2019-01-23T07:25:21.700Z,32.98
2019-01-23T07:27:50.683Z,35.63
2019-01-23T07:30:37.804Z,36.65
2019-01-23T07:33:07.201Z,35.83
2019-01-23T07:35:36.516Z,37.42
2019-01-23T07:38:05.741Z,35.17
2019-01-23T07:40:34.652Z,34.13
2019-01-23T07:43:03.560Z,35.73
2019-01-23T07:45:32.807Z,37.90
2019-01-23T07:48:01.816Z,37.98
2019-01-23T07:50:30.708Z,36.77
2019-01-23T07:53:00.004Z,37.78
2019-01-23T07:55:29.102Z,37.50
2019-01-23T07:57:58.100Z,38.98
2019-01-23T08:00:31.619Z,36.93
2019-01-23T08:02:58.332Z,37.20
2019-01-23T08:05:27.564Z,35.13
2019-01-23T08:07:56.437Z,37.05
2019-01-23T08:10:25.996Z,37.03
2019-01-23T08:12:55.052Z,37.20
2019-01-23T08:15:26.267Z,36.93
2019-01-23T08:17:55.160Z,35.73
2019-01-23T08:20:24.742Z,36.40
2019-01-23T08:22:53.856Z,36.28
2019-01-23T08:25:22.947Z,34.20
2019-01-23T08:27:51.923Z,32.10
2019-01-23T08:30:21.251Z,34.90
2019-01-23T08:32:50.436Z,33.28
2019-01-23T08:35:20.028Z,34.53
2019-01-23T08:37:49.328Z,34.63
2019-01-23T08:40:18.661Z,36.17
2019-01-23T08:42:47.676Z,33.28
2019-01-23T08:45:17.340Z,33.23
2019-01-23T08:47:46.439Z,34.83
2019-01-23T08:50:24.390Z,36.30
2019-01-23T08:52:53.790Z,32.45
2019-01-23T08:55:23.014Z,36.05
2019-01-23T08:57:52.164Z,34.73
2019-01-23T09:00:21.156Z,36.60
2019-01-23T09:02:50.137Z,38.17
2019-01-23T09:05:19.312Z,34.00
2019-01-23T09:07:48.345Z,33.25
2019-01-23T09:10:19.380Z,34.70
2019-01-23T09:12:48.368Z,31.50
2019-01-23T09:15:17.380Z,35.63
2019-01-23T09:17:46.347Z,34.33
2019-01-23T09:20:16.380Z,32.55
2019-01-23T09:22:45.316Z,35.70
2019-01-23T09:25:16.524Z,33.45
2019-01-23T09:27:45.892Z,34.78
2019-01-23T09:30:21.029Z,34.80
2019-01-23T09:33:40.524Z,32.95
2019-01-23T09:36:51.200Z,32.95
2019-01-23T09:39:37.133Z,34.40
2019-01-23T09:42:21.737Z,33.02
2019-01-23T09:45:33.628Z,32.05
2019-01-23T09:48:52.585Z,32.13
2019-01-23T09:52:08.353Z,32.83
2019-01-23T09:54:37.242Z,29.45
2019-01-23T09:57:06.193Z,32.60
2019-01-23T09:59:35.068Z,31.37
2019-01-23T10:02:04.460Z,31.52
2019-01-23T10:04:33.443Z,31.62
2019-01-23T10:07:02.272Z,33.95
2019-01-23T10:09:31.253Z,34.27
2019-01-23T10:12:00.155Z,32.73
2019-01-23T10:14:29.476Z,30.92
2019-01-23T10:16:58.476Z,30.70
2019-01-23T10:19:27.500Z,33.25
2019-01-23T10:21:56.465Z,33.13
2019-01-23T10:24:25.359Z,31.93
2019-01-23T10:26:54.348Z,31.60
2019-01-23T10:29:23.214Z,34.18
2019-01-23T10:31:52.217Z,34.23
2019-01-23T10:34:21.032Z,34.27
2019-01-23T10:36:50.328Z,33.85
2019-01-23T10:39:19.248Z,33.63
2019-01-23T10:41:48.094Z,32.78
2019-01-23T10:44:17.004Z,33.58
2019-01-23T10:46:45.994Z,33.25
2019-01-23T10:49:14.988Z,33.80
2019-01-23T10:51:43.868Z,33.10
2019-01-23T10:54:12.853Z,31.97
2019-01-23T10:56:41.836Z,35.83
2019-01-23T10:59:10.841Z,33.75
2019-01-23T11:01:39.840Z,34.05
2019-01-23T11:04:09.000Z,35.63
2019-01-23T11:06:38.055Z,33.67
2019-01-23T11:09:08.729Z,34.83
2019-01-23T11:11:37.675Z,33.13
2019-01-23T11:14:06.846Z,35.88
2019-01-23T11:16:35.804Z,31.97
2019-01-23T11:19:05.080Z,34.65
2019-01-23T11:21:34.332Z,35.52
2019-01-23T11:24:03.868Z,35.58
2019-01-23T11:26:32.909Z,35.05
2019-01-23T11:29:02.208Z,35.48
2019-01-23T11:31:31.478Z,34.08
2019-01-23T11:34:00.368Z,32.40
2019-01-23T11:36:29.340Z,35.60
2019-01-23T11:38:58.344Z,30.57
2019-01-23T11:41:27.344Z,32.20
2019-01-23T11:43:56.747Z,33.58
2019-01-23T11:46:25.654Z,32.17
2019-01-23T11:48:54.576Z,33.75
2019-01-23T11:51:23.461Z,34.60
2019-01-23T11:53:52.348Z,32.28
2019-01-23T11:56:21.224Z,33.15
2019-01-23T11:58:50.072Z,32.03
2019-01-23T12:01:19.077Z,33.08
2019-01-23T12:03:48.047Z,40.08
2019-01-23T12:06:17.006Z,41.88
2019-01-23T12:08:45.884Z,34.43
2019-01-23T12:11:15.072Z,33.30
2019-01-23T12:13:44.024Z,32.03
2019-01-23T12:16:12.927Z,32.17
2019-01-23T12:18:41.776Z,31.95
2019-01-23T12:21:10.878Z,30.68
2019-01-23T12:23:39.880Z,32.48
2019-01-23T12:26:08.861Z,30.35
2019-01-23T12:28:37.633Z,32.10
2019-01-23T12:31:06.624Z,28.95
2019-01-23T12:33:35.480Z,30.12
2019-01-23T12:36:04.536Z,30.43
2019-01-23T12:38:33.420Z,31.40
2019-01-23T12:41:02.401Z,30.35
2019-01-23T12:43:31.331Z,29.27
2019-01-23T12:46:00.336Z,30.12
2019-01-23T12:48:29.473Z,32.35
2019-01-23T12:50:58.401Z,33.23
2019-01-23T12:53:27.556Z,32.20
2019-01-23T12:55:56.472Z,33.78
2019-01-23T12:58:25.530Z,33.35
2019-01-23T13:00:54.456Z,32.15
2019-01-23T13:03:23.794Z,32.98
2019-01-23T13:05:52.748Z,31.40
2019-01-23T13:08:21.940Z,29.75
2019-01-23T13:10:50.921Z,30.65
2019-01-23T13:13:19.900Z,29.95
2019-01-23T13:15:48.863Z,28.30
2019-01-23T13:18:17.724Z,27.75
2019-01-23T13:20:46.766Z,31.12
2019-01-23T13:23:19.673Z,29.40
2019-01-23T13:25:46.239Z,29.85
2019-01-23T13:28:15.096Z,27.77
2019-01-23T13:30:44.305Z,30.52
2019-01-23T13:33:13.688Z,30.27
2019-01-23T13:35:42.560Z,29.23
2019-01-23T13:38:14.462Z,29.30
2019-01-23T13:40:43.780Z,28.67
2019-01-23T13:43:12.796Z,30.35
2019-01-23T13:45:41.867Z,31.37
2019-01-23T13:48:11.608Z,29.52
2019-01-23T13:50:40.532Z,29.82
2019-01-23T13:53:09.544Z,30.62
2019-01-23T13:55:38.384Z,27.70
2019-01-23T13:58:07.664Z,31.10
2019-01-23T14:00:40.179Z,28.60
2019-01-23T14:03:09.588Z,29.20
2019-01-23T14:05:38.478Z,28.50
2019-01-23T14:08:08.744Z,28.02
2019-01-23T14:10:37.828Z,30.17
2019-01-23T14:13:07.149Z,31.37
2019-01-23T14:15:37.621Z,30.75
2019-01-23T14:18:07.256Z,31.25
2019-01-23T14:20:36.829Z,30.52
2019-01-23T14:23:06.188Z,29.50
2019-01-23T14:25:35.148Z,29.63
2019-01-23T14:28:04.402Z,29.63
2019-01-23T14:30:35.920Z,28.23
2019-01-23T14:33:05.202Z,32.38
2019-01-23T14:35:35.348Z,30.12
2019-01-23T14:38:04.740Z,31.25
2019-01-23T14:40:33.540Z,31.62
2019-01-23T14:43:02.557Z,30.62
2019-01-23T14:45:31.480Z,32.28
2019-01-23T14:48:00.401Z,29.50
2019-01-23T14:50:29.357Z,31.37
2019-01-23T14:52:58.395Z,29.55
2019-01-23T14:55:27.231Z,32.58
2019-01-23T14:57:56.518Z,32.70
2019-01-23T15:00:26.764Z,29.30
2019-01-23T15:02:56.184Z,29.30
2019-01-23T15:05:25.076Z,32.33
2019-01-23T15:07:54.024Z,32.75
2019-01-23T15:10:25.372Z,31.30
2019-01-23T15:12:54.443Z,32.33
2019-01-23T15:15:23.588Z,29.42
2019-01-23T15:17:52.915Z,34.45
2019-01-23T15:20:24.233Z,32.83
2019-01-23T15:22:53.156Z,32.40
2019-01-23T15:25:22.352Z,32.67
2019-01-23T15:27:51.313Z,31.85
2019-01-23T15:30:21.013Z,34.53
2019-01-23T15:32:49.940Z,31.55
2019-01-23T15:35:20.688Z,32.98
2019-01-23T15:37:49.684Z,31.20
2019-01-23T15:40:21.213Z,32.65
2019-01-23T15:42:50.170Z,31.60
2019-01-23T15:45:19.124Z,32.93
2019-01-23T15:47:48.144Z,33.60
2019-01-23T15:50:19.580Z,35.28
2019-01-23T15:52:48.556Z,30.57
2019-01-23T15:55:18.808Z,33.00
2019-01-23T15:57:47.746Z,31.95
2019-01-23T16:00:19.217Z,31.10
2019-01-23T16:02:48.724Z,30.35
2019-01-23T16:05:18.258Z,31.02
2019-01-23T16:07:47.220Z,31.27
2019-01-23T16:10:18.576Z,32.50
2019-01-23T16:12:47.501Z,31.70
2019-01-23T16:15:17.788Z,30.27
2019-01-23T16:17:46.783Z,29.55
2019-01-23T16:20:15.790Z,28.60
2019-01-23T16:22:45.129Z,26.77
2019-01-23T16:25:15.219Z,29.77
2019-01-23T16:27:44.344Z,29.10
2019-01-23T16:30:19.223Z,29.07
2019-01-23T16:32:48.201Z,28.70
2019-01-23T16:35:17.176Z,29.95
2019-01-23T16:37:46.485Z,31.33
2019-01-23T16:40:15.513Z,31.10
2019-01-23T16:42:44.681Z,30.77
2019-01-23T16:45:14.744Z,32.75
2019-01-23T16:47:43.804Z,29.45
2019-01-23T16:50:15.591Z,28.92
2019-01-23T16:52:44.990Z,29.95
2019-01-23T16:55:14.652Z,31.00
2019-01-23T16:57:44.254Z,32.65
2019-01-23T17:00:16.409Z,33.02
2019-01-23T17:02:45.374Z,30.60
2019-01-23T17:05:17.961Z,30.70
2019-01-23T17:07:47.844Z,30.15
2019-01-23T17:10:18.349Z,30.92
2019-01-23T17:12:47.324Z,31.23
2019-01-23T17:15:17.016Z,33.28
2019-01-23T17:17:46.908Z,31.48
2019-01-23T17:20:19.924Z,33.30
2019-01-23T17:22:49.352Z,30.43
2019-01-23T17:25:18.348Z,33.50
2019-01-23T17:27:47.543Z,33.10
2019-01-23T17:30:17.247Z,31.55
2019-01-23T17:32:46.577Z,31.25
2019-01-23T17:35:17.156Z,33.05
2019-01-23T17:37:46.090Z,31.12
2019-01-23T17:40:17.198Z,32.75
2019-01-23T17:42:46.503Z,32.80
2019-01-23T17:45:23.746Z,34.33
2019-01-23T17:47:52.969Z,32.58
2019-01-23T17:50:22.520Z,33.00
2019-01-23T17:52:52.253Z,32.25
2019-01-23T17:55:40.771Z,34.73
2019-01-23T17:58:12.085Z,33.95
2019-01-23T18:00:47.268Z,33.70
2019-01-23T18:03:16.295Z,34.60
2019-01-23T18:05:51.063Z,33.13
2019-01-23T18:08:15.830Z,32.03
2019-01-23T18:10:45.044Z,33.63
2019-01-23T18:13:13.919Z,32.93
2019-01-23T18:15:42.844Z,32.35
2019-01-23T18:18:12.172Z,35.17
2019-01-23T18:20:41.261Z,32.93
2019-01-23T18:23:10.248Z,31.02
2019-01-23T18:25:39.229Z,29.92
2019-01-23T18:28:08.364Z,33.05
2019-01-23T18:30:41.314Z,32.73
2019-01-23T18:33:12.983Z,33.08
2019-01-23T18:36:02.424Z,32.38
2019-01-23T18:38:41.852Z,32.65
2019-01-23T18:41:50.452Z,34.78
2019-01-23T18:44:59.345Z,31.12
2019-01-23T18:48:24.489Z,32.90
2019-01-23T18:51:36.692Z,32.00
2019-01-23T18:54:05.972Z,30.97
2019-01-23T18:56:35.228Z,30.55
2019-01-23T18:59:04.916Z,32.42
2019-01-23T19:01:33.990Z,31.00
2019-01-23T19:04:03.664Z,32.03
2019-01-23T19:06:32.712Z,31.02
2019-01-23T19:09:01.617Z,30.30
2019-01-23T19:11:30.723Z,30.88
2019-01-23T19:13:59.720Z,29.65
2019-01-23T19:16:28.828Z,31.45
2019-01-23T19:18:57.760Z,31.55
2019-01-23T19:21:26.792Z,30.55
2019-01-23T19:23:55.668Z,29.35
2019-01-23T19:26:25.533Z,31.48
2019-01-23T19:28:54.508Z,30.52
2019-01-23T19:31:23.504Z,29.65
2019-01-23T19:33:52.812Z,30.50
2019-01-23T19:36:21.732Z,30.15
2019-01-23T19:38:50.532Z,29.72
2019-01-23T19:41:20.627Z,29.60
2019-01-23T19:43:49.965Z,29.50
2019-01-23T19:46:18.832Z,31.65
2019-01-23T19:48:48.176Z,29.92
2019-01-23T19:51:17.584Z,29.60
2019-01-23T19:53:46.566Z,29.75
2019-01-23T19:56:15.468Z,29.65
2019-01-23T19:58:44.264Z,29.85
2019-01-23T20:01:13.121Z,29.40
2019-01-23T20:03:42.188Z,30.48
2019-01-23T20:06:11.280Z,29.87
2019-01-23T20:08:40.483Z,29.55
2019-01-23T20:11:09.380Z,30.57
2019-01-23T20:13:38.256Z,28.62
2019-01-23T20:16:07.180Z,28.57
2019-01-23T20:18:36.225Z,28.02
2019-01-23T20:21:05.208Z,30.97
2019-01-23T20:23:34.212Z,28.92
2019-01-23T20:26:03.361Z,31.50
2019-01-23T20:28:32.552Z,31.23
2019-01-23T20:31:01.452Z,29.25
2019-01-23T20:33:30.548Z,32.73
2019-01-23T20:36:00.051Z,31.82
2019-01-23T20:38:28.976Z,31.15
2019-01-23T20:40:57.920Z,30.43
2019-01-23T20:43:27.128Z,29.70
2019-01-23T20:45:56.096Z,31.40
2019-01-23T20:48:25.125Z,30.43
2019-01-23T20:50:54.272Z,30.15
2019-01-23T20:53:23.368Z,29.90
2019-01-23T20:55:52.300Z,29.98
2019-01-23T20:58:21.535Z,31.05
2019-01-23T21:00:50.600Z,31.55
2019-01-23T21:03:19.616Z,30.50
2019-01-23T21:05:48.592Z,32.10
2019-01-23T21:08:17.673Z,31.45
2019-01-23T21:10:46.560Z,30.62
2019-01-23T21:13:15.396Z,28.83
2019-01-23T21:15:44.368Z,31.33
2019-01-23T21:18:13.352Z,31.42
2019-01-23T21:20:43.271Z,31.90
2019-01-23T21:23:14.489Z,29.72
2019-01-23T21:25:43.452Z,29.57
2019-01-23T21:28:12.444Z,29.87
2019-01-23T21:30:41.428Z,28.55
2019-01-23T21:33:10.436Z,30.40
2019-01-23T21:35:39.399Z,28.62
2019-01-23T21:38:08.329Z,31.17
2019-01-23T21:40:37.148Z,29.30
2019-01-23T21:43:06.172Z,27.40
2019-01-23T21:45:37.297Z,28.10
2019-01-23T21:48:07.484Z,30.32
2019-01-23T21:50:36.392Z,29.25
2019-01-23T21:53:05.697Z,30.30
2019-01-23T21:55:34.656Z,30.45
2019-01-23T21:58:03.707Z,28.47
2019-01-23T22:00:35.471Z,28.90
2019-01-23T22:03:05.212Z,29.85
2019-01-23T22:05:34.110Z,28.02
2019-01-23T22:08:02.985Z,29.07
2019-01-23T22:10:32.100Z,30.23
2019-01-23T22:13:01.298Z,28.10
2019-01-23T22:15:30.274Z,30.37
2019-01-23T22:17:59.252Z,27.27
2019-01-23T22:20:28.296Z,29.02
2019-01-23T22:22:57.209Z,29.60
2019-01-23T22:25:26.852Z,30.60
2019-01-23T22:27:55.809Z,28.55
2019-01-23T22:30:26.740Z,29.00
2019-01-23T22:32:55.849Z,30.77
2019-01-23T22:35:25.016Z,31.80
2019-01-23T22:37:54.007Z,29.23
2019-01-23T22:40:23.088Z,30.77
2019-01-23T22:42:52.066Z,28.70
2019-01-23T22:45:21.811Z,28.92
2019-01-23T22:47:51.027Z,29.77
2019-01-23T22:50:22.029Z,29.07
2019-01-23T22:52:50.996Z,28.10
2019-01-23T22:55:20.648Z,31.07
2019-01-23T22:57:49.984Z,29.42
2019-01-23T23:00:44.045Z,30.95
2019-01-23T23:03:15.868Z,28.27
2019-01-23T23:05:44.868Z,28.47
2019-01-23T23:08:13.789Z,28.32
2019-01-23T23:10:42.748Z,29.75
2019-01-23T23:13:11.767Z,30.52
2019-01-23T23:15:40.724Z,28.85
2019-01-23T23:18:09.579Z,30.12
2019-01-23T23:20:38.454Z,30.23
2019-01-23T23:23:07.920Z,30.57
2019-01-23T23:25:36.717Z,29.72
2019-01-23T23:28:06.257Z,32.20
2019-01-23T23:30:35.208Z,31.57
2019-01-23T23:33:05.070Z,29.95
2019-01-23T23:35:33.969Z,32.67
2019-01-23T23:38:02.996Z,29.60
2019-01-23T23:40:31.912Z,31.02
2019-01-23T23:43:00.904Z,30.02
2019-01-23T23:45:29.924Z,31.68
2019-01-23T23:47:58.756Z,30.72
2019-01-23T23:50:27.735Z,32.23
2019-01-23T23:52:56.703Z,29.90
2019-01-23T23:55:25.696Z,30.00
2019-01-23T23:57:54.588Z,30.40
